Time;durP1;ratioP1;P1;durP2;ratioP2;P2;SDS_P1;SDS_P2;PMS_P1;PMS_P2;Temp;Humidity;BMP_temperature;BMP_pressure;BME280_temperature;BME280_humidity;BME280_pressure;Samples;Min_cycle;Max_cycle;Signal;HPM_P1;HPM_P2
2023/07/06 00:01:48;;;;;;;6.55;1.83;;;11.90;99.90;;;;;;4969199;28;20093;-69
2023/07/06 00:04:14;;;;;;;10.95;1.52;;;11.90;99.90;;;;;;4969719;28;20400;-69
2023/07/06 00:06:40;;;;;;;4.65;1.30;;;11.90;99.90;;;;;;4970691;28;20046;-69
2023/07/06 00:09:06;;;;;;;5.97;1.52;;;11.90;99.90;;;;;;4936752;28;20093;-69
2023/07/06 00:11:38;;;;;;;3.35;1.60;;;11.90;99.90;;;;;;4958368;28;20493;-69
2023/07/06 00:14:04;;;;;;;5.03;1.40;;;12.00;99.90;;;;;;4980071;28;20058;-69
2023/07/06 00:16:31;;;;;;;5.80;1.40;;;12.00;99.90;;;;;;4969494;28;20074;-70
2023/07/06 00:18:58;;;;;;;6.93;1.98;;;11.90;99.90;;;;;;4970889;28;20058;-69
2023/07/06 00:21:30;;;;;;;1.92;1.40;;;11.90;99.90;;;;;;4969234;28;20153;-69
2023/07/06 00:23:57;;;;;;;2.28;1.40;;;11.90;99.90;;;;;;4971017;28;20054;-70
2023/07/06 00:26:22;;;;;;;5.07;1.48;;;11.90;99.90;;;;;;4968968;28;20046;-69
2023/07/06 00:28:48;;;;;;;7.90;1.67;;;11.90;99.90;;;;;;4969859;28;20136;-70
2023/07/06 00:31:31;;;;;;;4.88;1.40;;;11.80;99.90;;;;;;4969311;28;20152;-69
2023/07/06 00:34:03;;;;;;;3.03;1.45;;;11.80;99.90;;;;;;4969161;28;20566;-69
2023/07/06 00:36:31;;;;;;;4.53;1.40;;;11.90;99.90;;;;;;4957104;28;20134;-70
2023/07/06 00:38:57;;;;;;;4.13;1.67;;;11.90;99.90;;;;;;4952309;28;20188;-70
2023/07/06 00:41:22;;;;;;;9.27;1.92;;;11.90;99.90;;;;;;4970471;28;20125;-69
2023/07/06 00:43:54;;;;;;;5.43;1.40;;;11.90;99.90;;;;;;4968906;28;20069;-69
2023/07/06 00:46:24;;;;;;;8.20;1.70;;;11.90;99.90;;;;;;4938552;28;20046;-70
2023/07/06 00:48:51;;;;;;;2.38;1.48;;;11.90;99.90;;;;;;4987315;28;20050;-69
2023/07/06 00:51:32;;;;;;;3.67;1.77;;;11.90;99.90;;;;;;4968633;28;20053;-69
2023/07/06 00:54:06;;;;;;;10.45;1.70;;;11.90;99.90;;;;;;4969780;28;20432;-69
2023/07/06 00:56:40;;;;;;;5.40;1.90;;;11.80;99.90;;;;;;4952975;28;20054;-69
2023/07/06 00:59:09;;;;;;;5.68;1.83;;;11.90;99.90;;;;;;4954847;28;20086;-69
2023/07/06 01:01:41;;;;;;;2.70;1.63;;;11.90;99.90;;;;;;4948424;29;20051;-69
2023/07/06 01:04:08;;;;;;;10.20;1.70;;;11.90;99.90;;;;;;4948163;29;20035;-69
2023/07/06 01:06:39;;;;;;;5.75;1.98;;;11.90;99.90;;;;;;4932721;29;20187;-69
2023/07/06 01:09:06;;;;;;;8.98;2.05;;;11.70;99.90;;;;;;4930263;29;20596;-70
2023/07/06 01:11:35;;;;;;;8.82;1.88;;;11.70;99.90;;;;;;4925126;29;20054;-70
2023/07/06 01:14:01;;;;;;;6.97;1.90;;;11.70;99.90;;;;;;4933435;29;20119;-69
2023/07/06 01:16:39;;;;;;;4.60;1.95;;;11.70;99.90;;;;;;4935720;29;20043;-70
2023/07/06 01:19:30;;;;;;;5.45;1.70;;;11.70;99.90;;;;;;4934786;29;20410;-69
2023/07/06 01:22:24;;;;;;;5.60;1.77;;;11.60;99.90;;;;;;4933868;29;20051;-69
2023/07/06 01:25:11;;;;;;;5.30;2.10;;;11.60;99.90;;;;;;4935902;29;20091;-69
2023/07/06 01:27:59;;;;;;;5.50;2.28;;;11.50;99.90;;;;;;4935309;29;20091;-69
2023/07/06 01:30:25;;;;;;;2.58;1.83;;;11.60;99.90;;;;;;4933799;29;20142;-69
2023/07/06 01:33:11;;;;;;;4.95;1.80;;;11.50;99.90;;;;;;4935223;29;20078;-69
2023/07/06 01:36:00;;;;;;;6.03;2.08;;;11.50;99.90;;;;;;4950023;29;20063;-69
2023/07/06 01:38:26;;;;;;;4.82;2.60;;;11.50;99.90;;;;;;4952143;29;20038;-70
2023/07/06 01:40:52;;;;;;;5.05;2.28;;;11.50;99.90;;;;;;4935782;29;20471;-70
2023/07/06 01:43:20;;;;;;;9.07;2.42;;;11.50;99.90;;;;;;4933318;29;20497;-69
2023/07/06 01:45:47;;;;;;;8.75;2.50;;;11.40;99.90;;;;;;4935154;29;20075;-69
2023/07/06 01:48:15;;;;;;;5.07;2.22;;;11.40;99.90;;;;;;4916484;29;20047;-69
2023/07/06 01:51:20;;;;;;;7.45;2.50;;;11.50;99.90;;;;;;4935490;29;20406;-69
2023/07/06 01:53:52;;;;;;;4.75;2.35;;;11.40;99.90;;;;;;4920007;29;20495;-69
2023/07/06 01:56:33;;;;;;;10.63;2.65;;;11.40;99.90;;;;;;4933459;29;20062;-69
2023/07/06 01:59:07;;;;;;;6.25;2.40;;;11.40;99.90;;;;;;4944078;28;20067;-69
2023/07/06 02:01:41;;;;;;;7.43;2.88;;;11.40;99.90;;;;;;4937456;28;20172;-69
2023/07/06 02:04:08;;;;;;;6.28;2.88;;;11.40;99.90;;;;;;4922340;29;20043;-69
2023/07/06 02:06:38;;;;;;;5.95;2.78;;;11.30;99.90;;;;;;4934514;29;20371;-68
2023/07/06 02:09:04;;;;;;;;;;;11.40;99.90;;;;;;4935524;29;20047;-69
2023/07/06 02:11:32;;;;;;;3.92;3.03;;;11.40;99.90;;;;;;4940144;29;20349;-69
2023/07/06 02:13:58;;;;;;;4.85;2.90;;;11.40;99.90;;;;;;4950385;29;20054;-69
2023/07/06 02:16:24;;;;;;;12.45;3.05;;;11.40;99.90;;;;;;4934349;29;20494;-68
2023/07/06 02:18:50;;;;;;;6.15;2.97;;;11.50;99.90;;;;;;4932365;28;20051;-69
2023/07/06 02:21:16;;;;;;;6.90;3.17;;;11.40;99.90;;;;;;4933863;29;20043;-69
2023/07/06 02:23:42;;;;;;;7.68;3.33;;;11.50;99.90;;;;;;4933845;29;20580;-69
2023/07/06 02:26:07;;;;;;;8.13;3.63;;;11.50;99.90;;;;;;4911046;29;20457;-69
2023/07/06 02:28:35;;;;;;;7.47;3.25;;;11.50;99.90;;;;;;4934866;29;20043;-69
2023/07/06 02:31:03;;;;;;;7.88;3.03;;;11.60;99.90;;;;;;4932616;29;20141;-69
2023/07/06 02:33:30;;;;;;;6.35;3.47;;;11.60;99.90;;;;;;4934620;29;20455;-69
2023/07/06 02:35:56;;;;;;;7.10;3.42;;;11.60;99.90;;;;;;4949790;29;20122;-69
2023/07/06 02:38:23;;;;;;;15.02;3.35;;;11.70;99.90;;;;;;4951338;29;20105;-69
2023/07/06 02:40:49;;;;;;;16.65;3.35;;;11.70;99.90;;;;;;4933246;29;20071;-68
2023/07/06 02:43:16;;;;;;;7.97;3.42;;;11.70;99.90;;;;;;4917882;29;20492;-69
2023/07/06 02:45:46;;;;;;;7.25;3.13;;;11.70;99.90;;;;;;4926542;29;20047;-68
2023/07/06 02:48:12;;;;;;;;;;;11.80;99.90;;;;;;4932176;29;20055;-69
2023/07/06 02:50:38;;;;;;;7.55;3.05;;;11.90;99.90;;;;;;4934212;29;19937;-69
2023/07/06 02:53:04;;;;;;;8.35;3.60;;;11.80;99.90;;;;;;4932400;29;20525;-69
2023/07/06 02:55:32;;;;;;;8.25;3.50;;;11.90;99.90;;;;;;4950719;29;20043;-68
2023/07/06 02:57:58;;;;;;;6.88;3.47;;;11.90;99.90;;;;;;4932691;29;20418;-69
2023/07/06 03:00:24;;;;;;;12.65;3.50;;;11.90;99.90;;;;;;4917310;29;20051;-69
2023/07/06 03:02:50;;;;;;;7.72;3.35;;;11.90;99.90;;;;;;4933575;29;20462;-69
2023/07/06 03:05:23;;;;;;;8.10;3.45;;;11.90;99.90;;;;;;4931997;29;20039;-69
2023/07/06 03:07:54;;;;;;;3.95;3.38;;;12.00;99.90;;;;;;4934312;29;20410;-69
2023/07/06 03:10:22;;;;;;;8.48;3.42;;;12.00;99.90;;;;;;4916204;29;20110;-69
2023/07/06 03:12:48;;;;;;;8.68;3.55;;;12.00;99.90;;;;;;4933838;29;20046;-69
2023/07/06 03:15:15;;;;;;;6.25;3.15;;;12.00;99.90;;;;;;4931970;29;20603;-69
2023/07/06 03:17:48;;;;;;;8.45;3.13;;;12.00;99.90;;;;;;4933604;29;20039;-70
2023/07/06 03:20:18;;;;;;;8.20;3.70;;;12.10;99.90;;;;;;4949646;29;20515;-69
2023/07/06 03:22:48;;;;;;;7.45;3.60;;;12.10;99.90;;;;;;4932397;29;20490;-69
2023/07/06 03:25:15;;;;;;;7.05;3.28;;;12.10;99.90;;;;;;4932942;29;20051;-69
2023/07/06 03:27:42;;;;;;;9.55;3.53;;;12.10;99.90;;;;;;4912704;29;20040;-69
2023/07/06 03:30:10;;;;;;;12.20;4.05;;;12.20;99.90;;;;;;4928940;28;20059;-69
2023/07/06 03:32:37;;;;;;;9.55;4.13;;;12.10;99.90;;;;;;4931710;29;20091;-70
2023/07/06 03:35:05;;;;;;;9.38;3.88;;;12.20;99.90;;;;;;4919882;29;20518;-69
2023/07/06 03:37:30;;;;;;;10.07;3.45;;;12.30;99.90;;;;;;4932293;29;20055;-69
2023/07/06 03:39:56;;;;;;;4.70;3.47;;;12.30;99.90;;;;;;4932111;29;20042;-69
2023/07/06 03:42:22;;;;;;;8.40;3.72;;;12.20;99.90;;;;;;4932801;29;20066;-69
2023/07/06 03:44:47;;;;;;;8.85;3.50;;;12.30;99.90;;;;;;4931309;29;20219;-70
2023/07/06 03:47:14;;;;;;;5.30;3.42;;;12.30;99.90;;;;;;4933095;29;20075;-69
2023/07/06 03:49:41;;;;;;;8.73;3.53;;;12.30;99.90;;;;;;4923277;29;20410;-69
2023/07/06 03:52:07;;;;;;;7.95;3.38;;;12.30;99.90;;;;;;4950442;29;20495;-69
2023/07/06 03:54:34;;;;;;;10.52;3.47;;;12.30;99.90;;;;;;4949095;29;20095;-69
2023/07/06 03:57:05;;;;;;;8.43;3.00;;;12.30;99.90;;;;;;4931999;29;20031;-69
2023/07/06 03:59:31;;;;;;;10.13;2.97;;;12.30;99.90;;;;;;4932251;29;20086;-69
2023/07/06 04:01:57;;;;;;;9.25;3.40;;;12.40;99.90;;;;;;4931112;29;20074;-70
2023/07/06 04:04:28;;;;;;;5.45;2.88;;;12.30;99.90;;;;;;4932615;29;20055;-70
2023/07/06 04:06:55;;;;;;;7.15;3.15;;;12.30;99.90;;;;;;4930650;29;20110;-69
2023/07/06 04:09:25;;;;;;;8.63;3.05;;;12.30;99.90;;;;;;4927928;29;20067;-69
2023/07/06 04:11:52;;;;;;;5.43;2.95;;;12.30;99.90;;;;;;4939640;29;20055;-68
2023/07/06 04:14:21;;;;;;;9.32;3.33;;;12.30;99.90;;;;;;4931385;29;20079;-70
2023/07/06 04:16:47;;;;;;;5.05;2.75;;;12.30;99.90;;;;;;4931859;29;20409;-69
2023/07/06 04:19:13;;;;;;;6.38;3.33;;;12.30;99.90;;;;;;4915214;29;20050;-70
2023/07/06 04:21:39;;;;;;;4.72;2.75;;;12.30;99.90;;;;;;4932342;29;20059;-70
2023/07/06 04:24:04;;;;;;;6.32;3.05;;;12.30;99.90;;;;;;4931009;29;20051;-69
2023/07/06 04:26:30;;;;;;;8.30;3.33;;;12.30;99.90;;;;;;4931819;29;20502;-70
2023/07/06 04:28:56;;;;;;;5.32;3.30;;;12.30;99.90;;;;;;4931248;29;20062;-69
2023/07/06 04:31:23;;;;;;;12.38;3.40;;;12.40;99.90;;;;;;4931723;29;20042;-69
2023/07/06 04:33:49;;;;;;;5.55;3.38;;;12.50;99.90;;;;;;4932557;29;20408;-69
2023/07/06 04:36:18;;;;;;;5.95;3.03;;;12.50;99.90;;;;;;4930991;29;20059;-69
2023/07/06 04:38:44;;;;;;;11.10;3.22;;;12.60;99.90;;;;;;4949236;29;20114;-69
2023/07/06 04:41:12;;;;;;;5.65;2.90;;;12.70;99.90;;;;;;4930702;29;20151;-69
2023/07/06 04:43:38;;;;;;;6.50;3.08;;;12.90;99.90;;;;;;4948630;28;20043;-69
2023/07/06 04:46:04;;;;;;;5.43;2.85;;;12.90;99.90;;;;;;4930829;29;20126;-69
2023/07/06 04:48:32;;;;;;;5.40;3.47;;;13.00;99.90;;;;;;4915694;29;20134;-69
2023/07/06 04:50:59;;;;;;;8.82;3.13;;;13.00;99.90;;;;;;4931902;29;20055;-69
2023/07/06 04:53:25;;;;;;;11.07;3.40;;;13.10;99.90;;;;;;4930695;29;20101;-69
2023/07/06 04:55:51;;;;;;;9.35;3.13;;;13.20;99.90;;;;;;4932241;29;20522;-70
2023/07/06 04:58:17;;;;;;;6.57;3.22;;;13.20;99.90;;;;;;4930399;28;20043;-69
2023/07/06 05:00:45;;;;;;;5.75;3.05;;;13.30;99.90;;;;;;4947450;29;20645;-69
2023/07/06 05:03:12;;;;;;;11.50;3.17;;;13.40;99.90;;;;;;4924885;29;20508;-69
2023/07/06 05:05:43;;;;;;;8.07;3.47;;;13.40;99.90;;;;;;4931831;29;20078;-69
2023/07/06 05:08:15;;;;;;;13.57;3.17;;;13.40;99.90;;;;;;4931010;29;20051;-69
2023/07/06 05:10:46;;;;;;;7.15;3.50;;;13.50;99.90;;;;;;4930659;29;20079;-69
2023/07/06 05:13:12;;;;;;;7.85;3.00;;;13.70;99.90;;;;;;4931687;29;20051;-69
2023/07/06 05:15:38;;;;;;;5.03;3.13;;;13.80;99.90;;;;;;4930079;29;20059;-69
2023/07/06 05:18:06;;;;;;;7.88;3.17;;;13.80;99.90;;;;;;4945277;29;20147;-69
2023/07/06 05:20:32;;;;;;;6.38;3.28;;;13.90;99.90;;;;;;4922930;29;20039;-69
2023/07/06 05:22:58;;;;;;;8.25;3.45;;;13.90;99.90;;;;;;4932145;29;20521;-69
2023/07/06 05:25:26;;;;;;;8.98;3.50;;;14.00;99.90;;;;;;4927911;29;20052;-69
2023/07/06 05:27:52;;;;;;;10.00;3.60;;;14.00;99.90;;;;;;4928157;29;20065;-69
2023/07/06 05:30:19;;;;;;;10.32;3.17;;;14.00;99.90;;;;;;4932153;29;20047;-69
2023/07/06 05:32:44;;;;;;;11.40;3.70;;;14.00;99.90;;;;;;4947156;29;20079;-69
2023/07/06 05:35:13;;;;;;;11.07;3.67;;;14.10;99.90;;;;;;4931349;29;20521;-70
2023/07/06 05:37:41;;;;;;;7.25;3.33;;;14.00;99.90;;;;;;4914365;29;20051;-70
2023/07/06 05:40:09;;;;;;;9.10;3.83;;;14.00;99.90;;;;;;4915166;29;20596;-70
2023/07/06 05:42:34;;;;;;;13.70;4.20;;;14.00;99.90;;;;;;4923779;29;20134;-69
2023/07/06 05:45:01;;;;;;;7.38;3.20;;;14.00;99.90;;;;;;4929267;29;20130;-69
2023/07/06 05:47:27;;;;;;;8.90;3.85;;;14.00;99.90;;;;;;4915831;29;20091;-70
2023/07/06 05:49:53;;;;;;;8.52;3.75;;;14.10;99.90;;;;;;4929351;29;20050;-70
2023/07/06 05:52:19;;;;;;;10.18;4.20;;;14.10;99.90;;;;;;4931864;29;20055;-69
2023/07/06 05:54:44;;;;;;;9.82;3.80;;;14.20;99.90;;;;;;4913113;29;20521;-69
2023/07/06 05:57:16;;;;;;;7.55;4.10;;;14.20;99.90;;;;;;4935449;29;20073;-69
2023/07/06 05:59:43;;;;;;;5.93;3.75;;;14.30;99.90;;;;;;4917355;29;20114;-69
2023/07/06 06:02:13;;;;;;;5.53;3.80;;;14.30;99.90;;;;;;4918343;29;20484;-69
2023/07/06 06:04:41;;;;;;;10.32;4.25;;;14.40;99.90;;;;;;4933995;29;20055;-69
2023/07/06 06:07:07;;;;;;;8.65;4.15;;;14.40;99.90;;;;;;4950952;29;20053;-69
2023/07/06 06:09:33;;;;;;;7.85;3.92;;;14.50;99.90;;;;;;4928261;29;20118;-69
2023/07/06 06:12:00;;;;;;;11.95;4.13;;;14.60;99.90;;;;;;4926957;29;20051;-70
2023/07/06 06:14:26;;;;;;;8.82;4.90;;;14.70;99.90;;;;;;4934558;29;20560;-70
2023/07/06 06:16:52;;;;;;;7.18;4.32;;;14.70;99.90;;;;;;4933046;29;20130;-69
2023/07/06 06:19:18;;;;;;;8.75;5.07;;;14.90;99.90;;;;;;4934498;29;20641;-71
2023/07/06 06:21:44;;;;;;;9.52;4.82;;;14.90;99.90;;;;;;4933775;29;20051;-68
2023/07/06 06:24:10;;;;;;;10.32;3.72;;;15.00;99.90;;;;;;4933510;29;20126;-68
2023/07/06 06:26:36;;;;;;;9.80;4.57;;;15.00;99.90;;;;;;4934289;29;20053;-68
2023/07/06 06:29:05;;;;;;;12.77;4.40;;;15.10;99.90;;;;;;4933068;29;20295;-68
2023/07/06 06:31:32;;;;;;;10.75;4.07;;;15.30;99.90;;;;;;4914724;29;20098;-68
2023/07/06 06:33:58;;;;;;;11.82;4.47;;;15.30;99.90;;;;;;4924505;29;20050;-71
2023/07/06 06:36:23;;;;;;;9.38;4.72;;;15.40;99.90;;;;;;4934206;29;20050;-71
2023/07/06 06:38:49;;;;;;;10.52;4.75;;;15.40;99.90;;;;;;4933019;29;20043;-71
2023/07/06 06:41:15;;;;;;;11.85;4.72;;;15.50;99.90;;;;;;4933778;29;20105;-69
2023/07/06 06:43:46;;;;;;;11.00;5.32;;;15.60;99.90;;;;;;4933473;29;20557;-69
2023/07/06 06:46:13;;;;;;;13.73;5.05;;;15.60;99.90;;;;;;4931406;29;20058;-69
2023/07/06 06:48:39;;;;;;;17.75;5.13;;;15.80;99.90;;;;;;4929171;29;20051;-69
2023/07/06 06:51:09;;;;;;;14.60;5.38;;;15.80;99.90;;;;;;4927225;29;20099;-69
2023/07/06 06:53:37;;;;;;;14.15;5.50;;;16.00;99.90;;;;;;4919195;29;20038;-69
2023/07/06 06:56:04;;;;;;;7.97;4.32;;;16.00;99.90;;;;;;4932032;29;20047;-70
2023/07/06 06:58:30;;;;;;;10.73;4.45;;;16.10;99.90;;;;;;4953242;28;20147;-69
2023/07/06 07:00:58;;;;;;;19.17;5.18;;;16.30;99.90;;;;;;4936334;29;20422;-69
2023/07/06 07:03:23;;;;;;;14.30;5.25;;;16.40;99.90;;;;;;4932690;29;20398;-70
2023/07/06 07:06:14;;;;;;;15.23;4.32;;;16.50;99.90;;;;;;4923343;29;20058;-69
2023/07/06 07:08:43;;;;;;;18.85;4.38;;;16.50;99.90;;;;;;4946569;29;20054;-69
2023/07/06 07:11:10;;;;;;;18.63;4.60;;;16.70;99.90;;;;;;4920213;29;20081;-69
2023/07/06 07:13:37;;;;;;;11.50;4.57;;;16.80;99.90;;;;;;4916932;29;20055;-69
2023/07/06 07:16:05;;;;;;;12.07;4.57;;;17.00;99.90;;;;;;4925458;29;20075;-68
2023/07/06 07:18:32;;;;;;;11.48;4.65;;;17.20;99.90;;;;;;4931102;29;20489;-68
2023/07/06 07:20:58;;;;;;;14.88;5.05;;;17.30;99.90;;;;;;4948749;29;20115;-69
2023/07/06 07:23:26;;;;;;;16.17;4.78;;;17.30;99.90;;;;;;4933358;29;20129;-69
2023/07/06 07:25:52;;;;;;;12.98;4.20;;;17.40;99.90;;;;;;4931528;29;20054;-68
2023/07/06 07:28:18;;;;;;;12.63;3.90;;;17.50;99.90;;;;;;4949878;29;20467;-68
2023/07/06 07:31:11;;;;;;;13.73;3.97;;;17.60;99.90;;;;;;4948324;29;20059;-68
2023/07/06 07:33:37;;;;;;;12.65;3.90;;;18.00;99.90;;;;;;4921108;29;20066;-68
2023/07/06 07:36:04;;;;;;;13.80;4.47;;;18.30;99.90;;;;;;4932106;29;20114;-69
2023/07/06 07:38:30;;;;;;;10.88;2.95;;;18.60;99.90;;;;;;4931413;29;20087;-68
2023/07/06 07:41:02;;;;;;;8.38;3.75;;;18.80;99.90;;;;;;4923464;29;20052;-69
2023/07/06 07:43:32;;;;;;;19.90;3.20;;;19.10;99.90;;;;;;4948544;29;20051;-68
2023/07/06 07:46:03;;;;;;;10.55;4.00;;;19.10;99.90;;;;;;4932607;29;20069;-68
2023/07/06 07:48:32;;;;;;;10.98;3.45;;;19.30;99.90;;;;;;4915659;28;20047;-69
2023/07/06 07:50:58;;;;;;;11.88;2.67;;;19.50;99.90;;;;;;4930226;29;20043;-69
2023/07/06 07:53:26;;;;;;;10.10;3.00;;;19.80;99.60;;;;;;4918953;29;20067;-69
2023/07/06 07:55:54;;;;;;;10.95;2.75;;;20.00;99.90;;;;;;4937956;29;20098;-69
2023/07/06 07:58:22;;;;;;;7.13;2.00;;;20.40;97.10;;;;;;4928616;29;20070;-68
2023/07/06 08:00:55;;;;;;;6.03;2.28;;;20.60;88.20;;;;;;4929411;29;20059;-68
2023/07/06 08:03:23;;;;;;;10.73;1.90;;;20.50;69.30;;;;;;4931706;29;20051;-69
2023/07/06 08:05:55;;;;;;;5.72;1.98;;;20.40;60.80;;;;;;4931940;29;20433;-68
2023/07/06 08:08:25;;;;;;;2.45;1.45;;;20.50;74.70;;;;;;4931440;29;20054;-69
2023/07/06 08:10:56;;;;;;;3.00;1.30;;;20.60;61.20;;;;;;4916643;29;20114;-68
2023/07/06 08:13:22;;;;;;;6.05;1.50;;;20.70;32.90;;;;;;4931114;29;20130;-68
2023/07/06 08:15:49;;;;;;;4.80;1.77;;;20.50;25.10;;;;;;4915760;29;20498;-68
2023/07/06 08:18:16;;;;;;;5.32;1.70;;;20.60;41.00;;;;;;4930543;29;20086;-67
2023/07/06 08:20:47;;;;;;;4.40;2.15;;;20.70;18.20;;;;;;4930027;29;20055;-68
2023/07/06 08:23:16;;;;;;;8.27;1.88;;;20.80;15.10;;;;;;4928990;29;20131;-67
2023/07/06 08:25:42;;;;;;;4.63;1.07;;;21.00;17.10;;;;;;4931439;29;20040;-66
2023/07/06 08:28:10;;;;;;;8.50;1.88;;;21.00;23.20;;;;;;4947680;29;20051;-66
2023/07/06 08:30:40;;;;;;;6.72;1.65;;;21.10;8.70;;;;;;4939706;29;20043;-66
2023/07/06 08:33:11;;;;;;;3.35;1.20;;;21.30;16.80;;;;;;4932008;29;20083;-65
2023/07/06 08:35:42;;;;;;;8.05;1.52;;;21.50;4.10;;;;;;4940274;29;20122;-65
2023/07/06 08:38:08;;;;;;;1.90;1.23;;;21.50;4.40;;;;;;4948733;29;20095;-66
2023/07/06 08:40:35;;;;;;;6.95;1.30;;;21.40;1.00;;;;;;4927319;29;20048;-65
2023/07/06 08:43:04;;;;;;;3.70;1.10;;;21.50;1.00;;;;;;4943457;29;20066;-65
2023/07/06 08:45:42;;;;;;;12.27;1.10;;;21.30;1.00;;;;;;4949560;29;20047;-64
2023/07/06 08:48:19;;;;;;;5.00;1.30;;;20.80;1.00;;;;;;4947487;29;20086;-65
2023/07/06 08:50:56;;;;;;;3.90;1.00;;;20.30;1.00;;;;;;4927029;29;20066;-65
2023/07/06 08:53:30;;;;;;;6.63;1.40;;;20.30;1.00;;;;;;4939171;29;20059;-65
2023/07/06 08:56:00;;;;;;;5.68;1.25;;;20.40;8.60;;;;;;4914573;29;20052;-65
2023/07/06 08:58:32;;;;;;;4.30;1.40;;;20.60;1.00;;;;;;4934371;29;20059;-65
2023/07/06 09:01:22;;;;;;;2.85;0.82;;;20.80;1.00;;;;;;4915786;28;20048;-65
2023/07/06 09:03:51;;;;;;;1.63;0.90;;;20.70;1.00;;;;;;4934031;29;20383;-65
2023/07/06 09:06:23;;;;;;;3.50;0.90;;;20.50;1.00;;;;;;4947720;29;20094;-65
2023/07/06 09:08:54;;;;;;;2.13;0.80;;;20.30;1.00;;;;;;4942909;29;20490;-64
2023/07/06 09:11:22;;;;;;;0.88;0.77;;;20.00;1.00;;;;;;4919692;29;20103;-65
2023/07/06 09:14:00;;;;;;;5.68;1.23;;;19.80;1.00;;;;;;4929604;29;20489;-65
2023/07/06 09:16:26;;;;;;;6.47;0.90;;;19.60;1.00;;;;;;4924472;29;20091;-65
2023/07/06 09:18:53;;;;;;;3.33;0.90;;;19.50;1.00;;;;;;4941732;29;20068;-65
2023/07/06 09:21:25;;;;;;;2.83;0.85;;;19.30;1.00;;;;;;4925827;29;20043;-64
2023/07/06 09:23:52;;;;;;;2.58;1.20;;;19.20;1.00;;;;;;4947013;29;20051;-64
2023/07/06 09:26:28;;;;;;;6.55;1.27;;;19.00;8.00;;;;;;4910553;29;20048;-65
2023/07/06 09:29:17;;;;;;;4.95;1.35;;;18.90;10.30;;;;;;4926679;29;20603;-65
2023/07/06 09:31:45;;;;;;;1.60;1.00;;;18.70;15.10;;;;;;4930162;29;20106;-65
2023/07/06 09:34:27;;;;;;;2.88;1.35;;;18.60;15.30;;;;;;4902052;29;20043;-65
2023/07/06 09:36:53;;;;;;;4.78;1.13;;;18.50;17.60;;;;;;4943593;29;20077;-64
2023/07/06 09:39:19;;;;;;;3.60;1.30;;;18.50;29.50;;;;;;4949782;29;20059;-64
2023/07/06 09:41:46;;;;;;;3.50;1.30;;;18.50;19.00;;;;;;4952721;29;20450;-65
2023/07/06 09:44:35;;;;;;;3.40;1.10;;;18.50;14.90;;;;;;4948607;29;20047;-64
2023/07/06 09:47:03;;;;;;;1.55;0.80;;;18.50;12.70;;;;;;4951606;29;20063;-65
2023/07/06 09:49:45;;;;;;;2.78;0.90;;;18.60;13.50;;;;;;4934789;29;20047;-65
2023/07/06 09:52:15;;;;;;;2.35;1.10;;;18.60;14.20;;;;;;4933431;29;20040;-65
2023/07/06 09:54:50;;;;;;;;;;;18.70;18.90;;;;;;4952833;29;20047;-65
2023/07/06 09:57:16;;;;;;;2.55;1.23;;;18.70;19.50;;;;;;4950474;29;20390;-65
2023/07/06 09:59:48;;;;;;;4.97;0.95;;;18.70;14.80;;;;;;4952169;28;20067;-65
2023/07/06 10:02:14;;;;;;;6.60;1.30;;;18.70;16.10;;;;;;4950887;29;20047;-65
2023/07/06 10:04:53;;;;;;;0.63;0.60;;;18.70;7.50;;;;;;4951312;29;20050;-65
2023/07/06 10:07:48;;;;;;;4.85;0.88;;;18.70;4.50;;;;;;4934656;29;20049;-65
2023/07/06 10:10:35;;;;;;;2.33;0.85;;;18.80;5.70;;;;;;4913536;29;20066;-65
2023/07/06 10:13:05;;;;;;;7.93;1.40;;;18.90;9.80;;;;;;4935505;28;20490;-64
2023/07/06 10:16:06;;;;;;;2.17;0.93;;;19.20;14.00;;;;;;4950552;29;20047;-65
2023/07/06 10:18:49;;;;;;;3.67;1.20;;;19.70;9.40;;;;;;4946336;29;20483;-65
2023/07/06 10:21:27;;;;;;;6.15;1.10;;;20.00;1.60;;;;;;4951437;29;20490;-65
2023/07/06 10:24:08;;;;;;;4.70;1.10;;;20.30;1.00;;;;;;4951793;29;20043;-65
2023/07/06 10:26:38;;;;;;;4.53;1.00;;;20.30;1.00;;;;;;4950770;29;20477;-65
2023/07/06 10:29:12;;;;;;;3.22;1.25;;;20.40;1.00;;;;;;4923481;29;20170;-64
2023/07/06 10:31:44;;;;;;;4.65;1.45;;;20.40;1.00;;;;;;4924906;29;20082;-65
2023/07/06 10:34:21;;;;;;;4.40;1.30;;;20.10;1.00;;;;;;4949241;29;20055;-64
2023/07/06 10:36:49;;;;;;;3.75;1.48;;;19.70;1.00;;;;;;4929923;29;20050;-65
2023/07/06 10:39:24;;;;;;;2.78;0.90;;;19.40;1.00;;;;;;4947441;29;20042;-64
2023/07/06 10:42:00;;;;;;;6.13;1.27;;;19.10;1.00;;;;;;4917720;29;20095;-65
2023/07/06 10:44:44;;;;;;;2.05;1.25;;;18.90;1.00;;;;;;4935834;29;20526;-65
2023/07/06 10:47:44;;;;;;;2.83;1.33;;;18.70;1.00;;;;;;4929862;29;20482;-65
2023/07/06 10:50:32;;;;;;;8.23;1.30;;;18.60;3.70;;;;;;4912380;29;20070;-65
2023/07/06 10:53:15;;;;;;;2.67;1.20;;;18.60;7.10;;;;;;4943977;29;20059;-65
2023/07/06 10:55:58;;;;;;;8.00;1.65;;;18.60;12.00;;;;;;4913924;29;20134;-64
2023/07/06 10:58:33;;;;;;;4.68;1.13;;;18.60;21.50;;;;;;4932429;29;20558;-64
2023/07/06 11:01:12;;;;;;;5.40;1.13;;;18.60;22.20;;;;;;4932438;29;20065;-65
2023/07/06 11:03:42;;;;;;;2.38;0.88;;;18.60;17.70;;;;;;4933643;29;20071;-65
2023/07/06 11:06:15;;;;;;;2.22;1.00;;;18.60;15.70;;;;;;4946526;29;20531;-64
2023/07/06 11:09:07;;;;;;;2.85;0.98;;;18.60;11.10;;;;;;4950973;29;20229;-64
2023/07/06 11:12:04;;;;;;;3.60;1.88;;;18.70;12.40;;;;;;4923066;29;20502;-64
2023/07/06 11:14:38;;;;;;;3.20;1.13;;;18.80;20.50;;;;;;4916904;29;20059;-64
2023/07/06 11:17:22;;;;;;;5.38;1.15;;;18.80;9.60;;;;;;4951294;29;20057;-64
2023/07/06 11:20:08;;;;;;;1.85;1.30;;;18.80;14.00;;;;;;4937303;29;20126;-64
2023/07/06 11:22:36;;;;;;;5.05;1.48;;;18.90;16.20;;;;;;4932235;29;20131;-65
2023/07/06 11:25:03;;;;;;;2.88;1.23;;;19.00;15.50;;;;;;4933771;29;20066;-64
2023/07/06 11:27:36;;;;;;;3.35;1.20;;;19.10;16.00;;;;;;4931703;29;20495;-64
2023/07/06 11:30:04;;;;;;;1.85;1.17;;;19.20;6.70;;;;;;4929731;29;20051;-65
2023/07/06 11:32:40;;;;;;;3.10;0.95;;;19.30;8.50;;;;;;4926079;29;20054;-64
2023/07/06 11:35:24;;;;;;;1.75;0.85;;;19.40;3.40;;;;;;4937422;29;20110;-65
2023/07/06 11:38:02;;;;;;;4.72;1.23;;;19.50;5.90;;;;;;4933550;29;20094;-64
2023/07/06 11:40:53;;;;;;;3.42;1.30;;;19.80;2.90;;;;;;4930784;29;20500;-65
2023/07/06 11:43:34;;;;;;;2.35;1.05;;;20.00;1.00;;;;;;4932943;29;20050;-64
2023/07/06 11:46:34;;;;;;;2.75;1.10;;;20.20;1.00;;;;;;4950098;29;20051;-64
2023/07/06 11:49:29;;;;;;;1.92;1.20;;;20.30;1.00;;;;;;4948794;29;20085;-64
2023/07/06 11:51:58;;;;;;;3.03;1.00;;;20.20;1.00;;;;;;4950377;28;20082;-64
2023/07/06 11:54:49;;;;;;;1.98;1.00;;;20.20;1.00;;;;;;4931782;29;20847;-64
2023/07/06 11:57:25;;;;;;;1.85;0.88;;;20.20;1.00;;;;;;4949461;29;20451;-64
2023/07/06 12:03:00;;;;;;;1.15;0.80;;;20.30;1.00;;;;;;4928526;29;20090;-64
2023/07/06 12:05:33;;;;;;;1.38;0.80;;;20.60;1.00;;;;;;4928707;29;20054;-64
2023/07/06 12:08:02;;;;;;;1.95;0.80;;;20.90;1.00;;;;;;4942607;29;20050;-64
2023/07/06 12:10:32;;;;;;;1.30;0.80;;;21.00;1.00;;;;;;4922602;29;20047;-64
2023/07/06 12:12:58;;;;;;;0.98;0.60;;;21.30;1.00;;;;;;4938611;29;20413;-64
2023/07/06 12:15:24;;;;;;;1.48;0.80;;;21.40;1.00;;;;;;4929234;29;20058;-64
2023/07/06 12:17:56;;;;;;;0.90;0.60;;;21.40;1.00;;;;;;4944724;29;20063;-64
2023/07/06 12:20:25;;;;;;;1.25;0.70;;;21.10;1.00;;;;;;4943720;28;20098;-64
2023/07/06 12:22:59;;;;;;;0.60;0.60;;;20.80;1.00;;;;;;4923997;29;20079;-64
2023/07/06 12:25:29;;;;;;;1.95;1.00;;;20.60;1.00;;;;;;4918337;29;20495;-64
2023/07/06 12:27:57;;;;;;;2.28;1.02;;;20.40;1.00;;;;;;4925074;29;20045;-64
2023/07/06 12:30:33;;;;;;;3.22;0.90;;;20.20;1.00;;;;;;4939922;29;20087;-64
2023/07/06 12:33:10;;;;;;;2.13;1.00;;;20.10;1.00;;;;;;4912680;29;20054;-64
2023/07/06 12:35:37;;;;;;;2.28;0.80;;;20.10;1.00;;;;;;4945771;29;20047;-64
2023/07/06 12:38:09;;;;;;;1.33;0.98;;;20.10;1.00;;;;;;4924490;29;20111;-64
2023/07/06 12:40:36;;;;;;;1.67;1.00;;;20.10;1.00;;;;;;4946240;28;20049;-65
2023/07/06 12:43:03;;;;;;;5.00;1.23;;;20.20;1.00;;;;;;4949168;29;20050;-64
2023/07/06 12:45:30;;;;;;;1.65;1.00;;;20.30;1.00;;;;;;4930701;29;20055;-64
2023/07/06 12:47:59;;;;;;;0.93;0.82;;;20.30;1.00;;;;;;4930787;29;20047;-65
2023/07/06 12:50:36;;;;;;;3.30;0.90;;;20.30;1.00;;;;;;4947598;29;20047;-64
2023/07/06 12:53:09;;;;;;;1.25;0.90;;;20.30;1.00;;;;;;4948346;29;20282;-64
2023/07/06 12:55:36;;;;;;;0.93;0.93;;;20.20;1.00;;;;;;4949046;29;20039;-64
2023/07/06 12:58:23;;;;;;;1.63;0.90;;;20.20;1.00;;;;;;4948208;29;20402;-64
2023/07/06 13:00:50;;;;;;;1.42;0.90;;;20.10;1.00;;;;;;4947264;28;20059;-64
2023/07/06 13:03:16;;;;;;;2.25;0.70;;;20.20;1.00;;;;;;4933007;29;20506;-64
2023/07/06 13:05:54;;;;;;;2.72;0.90;;;20.30;1.00;;;;;;4918246;29;20506;-64
2023/07/06 13:08:20;;;;;;;3.60;0.98;;;20.50;1.00;;;;;;4933040;29;20538;-64
2023/07/06 13:11:00;;;;;;;1.08;0.85;;;20.70;1.00;;;;;;4934515;29;20527;-64